PST,Max TemperatureF,Mean TemperatureF,Min TemperatureF,Max Dew PointF,MeanDew PointF,Min DewpointF,Max Humidity, Mean Humidity, Min Humidity, Max Sea Level PressureIn, Mean Sea Level PressureIn, Min Sea Level PressureIn, Max VisibilityMiles, Mean VisibilityMiles, Min VisibilityMiles, Max Wind SpeedMPH, Mean Wind SpeedMPH, Max Gust SpeedMPH,PrecipitationIn, CloudCover, Events, WindDirDegrees
2013-1-1,27,26,24,19,18,17,78,74,69,30.65,30.61,30.55,10,10,6,7,1,,0.00,8,,359
2013-1-2,26,25,24,18,17,15,75,72,66,30.64,30.59,30.52,10,10,10,8,3,,0.00,8,,37
2013-1-3,28,24,19,19,17,12,80,72,65,30.51,30.41,30.30,10,10,6,7,2,,0.00,7,Snow,68
2013-1-4,30,27,24,22,19,17,81,73,64,30.45,30.40,30.34,10,8,2,6,1,,0.00,8,,136
2013-1-5,30,28,26,25,22,20,86,78,72,30.42,30.28,30.18,10,4,0,5,0,,0.00,8,Snow,351
2013-1-6,28,26,24,23,22,19,85,80,74,30.23,30.14,30.02,5,2,0,5,0,,0.00,8,Fog,233
2013-1-7,44,35,26,35,24,21,86,76,58,30.06,29.95,29.85,10,3,1,29,2,34,0.22,6,Snow,300
2013-1-8,41,34,28,33,28,24,89,78,60,30.13,29.98,29.78,10,8,1,15,5,,0.02,5,Rain,336
2013-1-9,41,32,24,31,25,19,93,73,60,29.86,29.75,29.63,10,8,1,23,6,,0.02,1,Rain,338
2013-1-10,37,30,19,24,20,12,71,64,55,30.01,29.93,29.86,10,10,10,20,11,22,0.00,1,,333
2013-1-11,32,24,14,17,11,7,77,68,54,30.30,30.21,30.02,10,10,10,9,2,,0.00,1,,32
2013-1-12,26,18,10,14,9,4,81,73,60,30.43,30.36,30.30,10,10,5,4,1,,0.00,0,,11
2013-1-13,23,15,7,13,7,2,81,75,65,30.51,30.47,30.42,10,10,7,6,2,,0.00,2,,58
2013-1-14,39,28,17,27,19,11,78,68,54,30.45,30.38,30.22,10,9,6,30,6,40,0.00,3,,230
2013-1-15,36,27,18,23,18,13,81,73,55,30.61,30.57,30.49,10,10,8,5,1,,0.00,0,,103
2013-1-16,32,24,17,22,19,11,81,75,64,30.63,30.57,30.51,10,8,6,18,2,,0.00,3,,94
2013-1-17,27,26,24,23,21,19,88,83,78,30.60,30.50,30.36,10,3,0,6,2,,0.00,8,Fog,237
2013-1-18,25,23,21,20,19,18,89,84,78,30.40,30.35,30.26,10,2,0,5,1,,0.00,8,Fog,189
2013-1-19,26,24,21,22,20,18,93,84,80,30.50,30.41,30.32,4,2,0,6,1,,0.00,8,Fog,274
2013-1-20,25,23,21,21,20,18,89,85,81,30.59,30.52,30.47,,,,5,1,,0.00,8,,276
2013-1-21,21,20,19,18,17,15,93,85,80,30.45,30.37,30.29,8,3,0,6,2,,0.00,8,Fog,269
2013-1-22,23,21,19,18,17,16,93,81,74,30.38,30.29,30.14,10,7,2,5,1,,0.00,8,,37
2013-1-23,28,24,21,21,19,16,82,75,69,30.21,30.08,29.93,10,9,7,7,2,,0.00,6,,79
2013-1-24,27,21,15,21,18,11,88,82,77,30.30,30.21,30.13,7,4,0,7,2,,0.00,8,Fog,108
2013-1-25,32,28,23,26,22,18,89,80,72,30.17,30.05,29.91,5,4,0,6,1,,0.01,7,Fog,231
2013-1-26,32,30,28,27,26,25,93,85,79,30.01,29.94,29.89,10,3,0,6,2,,0.00,8,Fog-Snow,44
2013-1-27,28,24,21,26,22,18,89,85,80,30.06,30.00,29.92,,,,6,1,,0.00,7,,252
2013-1-28,41,31,21,30,26,18,89,76,65,30.01,29.95,29.91,10,10,10,21,5,29,0.00,2,,298
2013-1-29,45,42,39,33,31,29,70,65,60,30.20,30.12,29.93,10,10,10,33,21,41,0.00,1,,305
2013-1-30,52,48,43,36,35,31,74,64,54,30.27,30.21,30.14,10,10,10,34,24,45,0.00,1,,304
2013-1-31,52,46,41,37,35,33,76,66,54,30.31,30.26,30.23,10,10,10,21,14,28,0.00,3,,308